Time;durP1;ratioP1;P1;durP2;ratioP2;P2;SDS_P1;SDS_P2;PMS_P1;PMS_P2;Temp;Humidity;BMP_temperature;BMP_pressure;BME280_temperature;BME280_humidity;BME280_pressure;Samples;Min_cycle;Max_cycle;Signal;HPM_P1;HPM_P2
2021/06/14 05:03:26;;;;;;;10.98;6.10;;;;;;;12.29;100.00;98316.29;1682481;83;21645;-53
2021/06/14 05:05:54;;;;;;;12.20;7.30;;;;;;;12.34;100.00;98315.08;1683743;84;21448;-52
2021/06/14 05:08:22;;;;;;;13.15;7.40;;;;;;;12.40;100.00;98318.91;1676716;84;21487;-53
2021/06/14 05:10:51;;;;;;;11.75;6.97;;;;;;;12.45;100.00;98309.77;1677231;85;21590;-54
2021/06/14 05:13:19;;;;;;;11.40;7.22;;;;;;;12.51;100.00;98325.22;1667291;85;21010;-57
2021/06/14 05:15:46;;;;;;;13.70;7.60;;;;;;;12.51;100.00;98325.22;1652684;86;21105;-55
2021/06/14 05:18:15;;;;;;;13.05;7.28;;;;;;;12.54;100.00;98314.17;1656867;86;21092;-56
2021/06/14 05:20:43;;;;;;;9.40;6.37;;;;;;;12.56;100.00;98324.50;1658300;86;21516;-55
2021/06/14 05:23:10;;;;;;;12.60;5.97;;;;;;;12.54;100.00;98329.23;1660866;85;21049;-52
2021/06/14 05:25:38;;;;;;;8.55;6.08;;;;;;;12.53;100.00;98320.50;1682364;85;21367;-55
2021/06/14 05:28:06;;;;;;;10.75;6.65;;;;;;;12.52;100.00;98329.47;1658824;85;20978;-58
2021/06/14 05:30:34;;;;;;;11.78;6.85;;;;;;;12.54;100.00;98331.87;1658226;85;21044;-53
2021/06/14 05:33:01;;;;;;;10.55;6.45;;;;;;;12.58;100.00;98344.92;1678819;85;21059;-55
2021/06/14 05:35:28;;;;;;;13.95;7.45;;;;;;;12.59;100.00;98344.68;1679823;85;21023;-54
2021/06/14 05:37:56;;;;;;;15.35;7.28;;;;;;;12.60;100.00;98341.00;1689865;85;21472;-51
2021/06/14 05:40:24;;;;;;;9.53;6.12;;;;;;;12.63;100.00;98344.51;1684012;84;21025;-54
2021/06/14 05:42:52;;;;;;;15.50;7.10;;;;;;;12.67;100.00;98352.27;1664195;86;21019;-56
2021/06/14 05:45:19;;;;;;;12.68;7.67;;;;;;;12.67;100.00;98352.27;1675986;85;21083;-55
2021/06/14 05:47:47;;;;;;;14.38;7.72;;;;;;;12.71;100.00;98338.05;1679953;85;21047;-56
2021/06/14 05:50:15;;;;;;;13.68;7.62;;;;;;;12.74;100.00;98336.27;1680548;85;21633;-51
2021/06/14 05:52:42;;;;;;;13.83;8.43;;;;;;;12.75;100.00;98333.38;1687943;84;20965;-56
2021/06/14 05:55:11;;;;;;;11.43;7.62;;;;;;;12.78;100.00;98328.12;1648912;86;21100;-57
2021/06/14 05:57:38;;;;;;;15.58;8.05;;;;;;;12.85;100.00;98343.38;1678140;85;21495;-53
2021/06/14 06:00:08;;;;;;;15.28;7.97;;;;;;;12.90;100.00;98338.19;1678177;85;21578;-57
2021/06/14 06:02:37;;;;;;;18.02;9.23;;;;;;;12.91;100.00;98339.78;1676552;85;21116;-58
2021/06/14 06:05:09;;;;;;;14.07;8.20;;;;;;;12.97;100.00;98353.91;1642160;85;21026;-57
2021/06/14 06:07:36;;;;;;;13.38;7.58;;;;;;;12.97;100.00;98356.56;1671760;86;20996;-54
2021/06/14 06:10:07;;;;;;;13.62;7.40;;;;;;;12.97;100.00;98356.04;1674026;86;21596;-56
2021/06/14 06:12:34;;;;;;;12.20;7.28;;;;;;;12.98;100.00;98356.31;1676652;85;21079;-54
2021/06/14 06:15:05;;;;;;;13.32;7.95;;;;;;;12.97;100.00;98358.69;1676245;86;21483;-62
2021/06/14 06:17:33;;;;;;;14.30;8.03;;;;;;;12.97;100.00;98358.69;1664045;85;21496;-55
2021/06/14 06:20:00;;;;;;;12.55;7.40;;;;;;;12.96;100.00;98366.34;1684276;85;21049;-55
2021/06/14 06:22:28;;;;;;;9.08;5.92;;;;;;;12.98;100.00;98364.25;1676291;85;21110;-54
2021/06/14 06:24:56;;;;;;;12.98;6.20;;;;;;;13.02;100.00;98372.02;1676008;85;21155;-57
2021/06/14 06:27:24;;;;;;;10.70;6.40;;;;;;;13.06;100.00;98375.50;1672292;85;21018;-56
2021/06/14 06:29:51;;;;;;;10.45;6.20;;;;;;;13.12;100.00;98381.17;1675887;85;21107;-56
2021/06/14 06:32:19;;;;;;;14.25;6.03;;;;;;;13.18;100.00;98374.41;1686374;85;21108;-53
2021/06/14 06:34:47;;;;;;;9.85;5.97;;;;;;;13.23;100.00;98383.00;1701523;84;21094;-58
2021/06/14 06:37:14;;;;;;;11.55;6.37;;;;;;;13.29;100.00;98376.24;1676996;85;21086;-58
2021/06/14 06:39:42;;;;;;;12.85;6.00;;;;;;;13.33;100.00;98382.41;1676729;85;21004;-57
2021/06/14 06:42:11;;;;;;;9.50;5.72;;;;;;;13.38;100.00;98370.59;1667078;84;21550;-54
2021/06/14 06:44:39;;;;;;;10.48;6.10;;;;;;;13.36;100.00;98374.80;1672956;84;21086;-51
2021/06/14 06:47:06;;;;;;;13.80;6.50;;;;;;;13.37;100.00;98372.95;1676041;84;21070;-54
2021/06/14 06:49:34;;;;;;;8.48;5.87;;;;;;;13.39;100.00;98375.63;1667608;84;21083;-50
2021/06/14 06:52:01;;;;;;;8.45;6.10;;;;;;;13.42;100.00;98370.37;1665223;85;21067;-57
2021/06/14 06:54:29;;;;;;;9.35;5.62;;;;;;;13.42;100.00;98382.28;1665674;84;21036;-50
2021/06/14 06:56:57;;;;;;;10.38;5.90;;;;;;;13.38;100.00;98387.79;1668952;86;21060;-60
2021/06/14 06:59:24;;;;;;;11.65;6.15;;;;;;;13.37;100.00;98376.92;1669437;85;21052;-57
2021/06/14 07:01:52;;;;;;;11.40;6.35;;;;;;;13.40;100.00;98387.02;1666785;84;21035;-54
2021/06/14 07:04:19;;;;;;;12.68;5.78;;;;;;;13.45;100.00;98390.57;1714161;82;21057;-56
2021/06/14 07:06:47;;;;;;;9.75;6.05;;;;;;;13.50;100.00;98384.56;1710401;82;21053;-54
2021/06/14 07:09:15;;;;;;;10.80;6.12;;;;;;;13.54;100.00;98386.51;1706929;82;21068;-50
2021/06/14 07:11:44;;;;;;;11.03;5.58;;;;;;;13.59;100.00;98395.56;1729345;82;21033;-50
2021/06/14 07:14:11;;;;;;;11.90;6.30;;;;;;;13.64;100.00;98391.68;1672512;84;21121;-51
2021/06/14 07:16:41;;;;;;;11.78;6.47;;;;;;;13.71;100.00;98398.45;1706545;84;21187;-52
2021/06/14 07:19:08;;;;;;;10.68;5.80;;;;;;;13.76;100.00;98412.28;1705598;83;21046;-53
2021/06/14 07:21:36;;;;;;;9.03;6.22;;;;;;;13.78;100.00;98403.59;1693465;84;21026;-54
2021/06/14 07:24:06;;;;;;;13.43;7.35;;;;;;;13.77;100.00;98400.14;1707802;84;21045;-59
2021/06/14 07:26:36;;;;;;;13.75;6.20;;;;;;;13.78;100.00;98408.37;1707056;84;21521;-54
2021/06/14 07:29:03;;;;;;;10.60;5.85;;;;;;;13.80;100.00;98411.58;1707182;82;21020;-52
2021/06/14 07:31:31;;;;;;;14.73;6.22;;;;;;;13.79;100.00;98416.59;1706145;84;20990;-52
2021/06/14 07:34:01;;;;;;;9.08;6.15;;;;;;;13.70;100.00;98431.25;1708016;84;21073;-51
2021/06/14 07:36:29;;;;;;;10.38;6.78;;;;;;;13.59;100.00;98429.98;1707961;84;21492;-50
2021/06/14 07:38:57;;;;;;;14.07;6.95;;;;;;;13.50;100.00;98443.63;1709424;83;21467;-53
2021/06/14 07:41:28;;;;;;;12.10;7.03;;;;;;;13.48;100.00;98430.34;1707755;83;21069;-53
2021/06/14 07:43:56;;;;;;;10.93;6.55;;;;;;;13.49;100.00;98427.98;1708066;84;21030;-59
2021/06/14 07:46:25;;;;;;;15.55;6.85;;;;;;;13.47;100.00;98434.81;1742973;82;21579;-55
2021/06/14 07:48:52;;;;;;;11.95;6.50;;;;;;;13.44;100.00;98437.14;1708175;82;21002;-66
2021/06/14 07:51:20;;;;;;;11.22;6.55;;;;;;;13.39;100.00;98442.34;1707969;84;21053;-65
2021/06/14 07:53:50;;;;;;;12.03;6.20;;;;;;;13.34;100.00;98436.95;1702006;83;20954;-51
2021/06/14 07:56:19;;;;;;;12.65;7.05;;;;;;;13.32;100.00;98431.09;1679352;84;21492;-51
2021/06/14 07:58:47;;;;;;;11.45;6.42;;;;;;;13.38;100.00;98435.45;1690788;84;21130;-50
2021/06/14 08:01:16;;;;;;;12.88;6.60;;;;;;;13.45;100.00;98432.93;1708352;84;21014;-48
2021/06/14 08:03:47;;;;;;;11.30;6.17;;;;;;;13.55;100.00;98433.65;1702423;84;21106;-53
2021/06/14 08:06:13;;;;;;;11.85;6.55;;;;;;;13.61;100.00;98431.37;1692200;84;21551;-54
2021/06/14 08:08:41;;;;;;;11.38;6.42;;;;;;;13.63;100.00;98425.31;1703860;84;21049;-55
2021/06/14 08:11:10;;;;;;;11.53;6.92;;;;;;;13.65;100.00;98425.06;1703858;84;21052;-57
2021/06/14 08:13:38;;;;;;;11.93;6.15;;;;;;;13.69;100.00;98442.09;1703619;84;21626;-52
2021/06/14 08:16:09;;;;;;;11.55;6.47;;;;;;;13.71;100.00;98437.38;1702991;82;21035;-56
2021/06/14 08:18:49;;;;;;;12.75;7.03;;;;;;;13.75;100.00;98447.24;1709607;84;21005;-63
2021/06/14 08:26:35;;;;;;;12.33;6.78;;;;;;;13.98;100.00;98438.36;1713810;84;21041;-65
2021/06/14 08:29:03;;;;;;;11.05;5.70;;;;;;;14.04;100.00;98446.68;1711585;84;21057;-66
2021/06/14 08:31:35;;;;;;;9.03;6.22;;;;;;;14.04;100.00;98453.30;1707853;84;21586;-60
2021/06/14 08:34:03;;;;;;;9.53;6.40;;;;;;;14.01;100.00;98472.35;1709159;83;21040;-56
2021/06/14 08:36:32;;;;;;;9.30;6.20;;;;;;;13.97;100.00;98465.91;1709524;84;21826;-61
2021/06/14 08:38:59;;;;;;;10.98;6.15;;;;;;;13.96;100.00;98455.03;1713153;84;21064;-68
2021/06/14 08:41:27;;;;;;;11.12;6.90;;;;;;;13.98;100.00;98451.61;1713786;82;21029;-58
2021/06/14 08:43:57;;;;;;;16.23;8.23;;;;;;;14.02;100.00;98459.90;1705366;84;21064;-57
2021/06/14 08:46:26;;;;;;;19.90;11.83;;;;;;;14.07;100.00;98458.14;1706307;82;21077;-64
2021/06/14 08:48:54;;;;;;;18.82;11.22;;;;;;;14.17;100.00;98454.06;1713690;84;21037;-54
2021/06/14 08:51:22;;;;;;;10.48;6.78;;;;;;;14.28;100.00;98450.53;1712403;84;22318;-58
2021/06/14 08:53:51;;;;;;;17.65;7.08;;;;;;;14.39;100.00;98439.53;1713106;84;21049;-57
2021/06/14 08:56:23;;;;;;;13.40;7.28;;;;;;;14.46;100.00;98446.83;1688752;84;21020;-58
2021/06/14 08:58:52;;;;;;;14.30;7.80;;;;;;;14.54;100.00;98429.99;1707151;84;21049;-61
2021/06/14 09:01:20;;;;;;;20.32;10.72;;;;;;;14.59;100.00;98449.96;1711571;84;21069;-60
2021/06/14 09:03:47;;;;;;;23.00;11.60;;;;;;;14.60;100.00;98439.63;1722770;83;21076;-65
2021/06/14 09:06:16;;;;;;;31.27;21.05;;;;;;;14.64;100.00;98455.07;1723142;83;21061;-62
2021/06/14 09:08:57;;;;;;;23.32;13.38;;;;;;;14.72;100.00;98447.48;1693814;85;21606;-53
2021/06/14 09:11:25;;;;;;;19.35;10.82;;;;;;;14.80;100.00;98439.13;1686635;85;21068;-66
2021/06/14 09:13:54;;;;;;;18.32;8.95;;;;;;;15.01;100.00;98448.14;1687210;85;21648;-57
2021/06/14 09:16:23;;;;;;;21.82;12.30;;;;;;;15.22;100.00;98459.83;1685677;85;21497;-62
2021/06/14 09:18:51;;;;;;;27.50;16.97;;;;;;;15.40;100.00;98448.88;1728143;82;21017;-53
2021/06/14 09:21:18;;;;;;;19.30;9.80;;;;;;;15.55;100.00;98460.21;1714002;84;21061;-63
2021/06/14 09:23:59;;;;;;;17.45;9.53;;;;;;;15.60;100.00;98452.83;1714245;84;21563;-54
2021/06/14 09:26:38;;;;;;;12.93;6.30;;;;;;;15.65;100.00;98454.21;1709032;84;21637;-54
2021/06/14 09:29:16;;;;;;;14.03;6.10;;;;;;;15.66;100.00;98456.64;1709058;84;21683;-56
2021/06/14 09:31:54;;;;;;;11.12;5.47;;;;;;;15.66;100.00;98463.81;1702451;84;21456;-57
2021/06/14 09:34:41;;;;;;;8.20;5.72;;;;;;;15.66;100.00;98470.45;1710881;84;21041;-50
2021/06/14 09:37:11;;;;;;;10.25;5.97;;;;;;;15.66;100.00;98483.21;1719843;82;21534;-56
2021/06/14 09:39:41;;;;;;;10.67;6.03;;;;;;;15.65;100.00;98485.59;1714434;84;21053;-50
2021/06/14 09:42:25;;;;;;;12.77;5.97;;;;;;;15.66;100.00;98504.99;1714457;84;21401;-55
2021/06/14 09:44:54;;;;;;;10.60;6.17;;;;;;;15.66;100.00;98492.51;1704734;84;21068;-54
2021/06/14 09:47:23;;;;;;;11.20;6.33;;;;;;;15.60;100.00;98510.75;1703588;84;21105;-51
2021/06/14 09:50:00;;;;;;;10.60;5.80;;;;;;;15.60;100.00;98510.75;1651558;85;21057;-55
2021/06/14 09:52:28;;;;;;;12.23;6.28;;;;;;;15.56;100.00;98498.20;1690973;84;21590;-53
2021/06/14 09:55:16;;;;;;;13.65;6.00;;;;;;;15.51;100.00;98500.80;1686594;84;21004;-57
2021/06/14 09:57:42;;;;;;;12.93;6.60;;;;;;;15.51;100.00;98500.80;1687341;85;21076;-53
2021/06/14 10:00:15;;;;;;;11.93;6.08;;;;;;;15.55;100.00;98517.85;1685731;85;21157;-54
2021/06/14 10:02:44;;;;;;;16.80;7.42;;;;;;;15.59;100.00;98501.67;1684042;85;21085;-51
2021/06/14 10:05:21;;;;;;;11.65;6.47;;;;;;;15.64;100.00;98497.78;1685979;85;21108;-58
2021/06/14 10:07:50;;;;;;;12.98;6.67;;;;;;;15.66;100.00;98503.67;1692727;84;21341;-56
2021/06/14 10:10:25;;;;;;;11.30;6.20;;;;;;;15.68;100.00;98511.38;1713092;84;21021;-54
2021/06/14 10:12:58;;;;;;;9.08;5.90;;;;;;;15.71;100.00;98503.70;1691406;85;21006;-56
2021/06/14 10:15:38;;;;;;;10.08;5.70;;;;;;;15.74;100.00;98515.17;1679913;83;21041;-52
2021/06/14 10:18:10;;;;;;;10.25;6.10;;;;;;;15.73;100.00;98517.55;1719237;83;21096;-55
2021/06/14 10:20:38;;;;;;;10.78;6.08;;;;;;;15.74;100.00;98513.04;1711951;83;21483;-63
2021/06/14 10:23:07;;;;;;;11.60;6.45;;;;;;;15.75;100.00;98510.13;1704763;84;21056;-52
2021/06/14 10:25:35;;;;;;;14.38;6.28;;;;;;;15.77;100.00;98514.69;1681433;84;21040;-54
2021/06/14 10:29:16;;;;;;;11.33;6.53;;;;;;;15.80;100.00;98516.03;1705819;84;21134;-50
2021/06/14 10:31:59;;;;;;;14.87;7.08;;;;;;;15.84;100.00;98523.26;1707345;84;21053;-50
2021/06/14 10:34:27;;;;;;;15.93;7.60;;;;;;;15.91;100.00;98521.73;1714092;84;21056;-49
2021/06/14 10:36:57;;;;;;;13.70;6.20;;;;;;;15.93;100.00;98520.94;1715675;82;21452;-52
2021/06/14 10:39:26;;;;;;;14.45;6.17;;;;;;;15.97;100.00;98526.05;1743916;82;21044;-53
2021/06/14 10:41:54;;;;;;;12.15;6.15;;;;;;;16.01;100.00;98517.05;1727026;82;21479;-53
2021/06/14 10:44:22;;;;;;;11.65;5.78;;;;;;;16.02;100.00;98520.78;1708617;84;21054;-50
2021/06/14 10:46:50;;;;;;;9.50;5.90;;;;;;;16.07;100.00;98527.48;1714280;84;21049;-54
2021/06/14 10:49:20;;;;;;;10.58;5.87;;;;;;;16.14;100.00;98539.23;1714133;84;21613;-49
2021/06/14 10:51:59;;;;;;;9.23;5.47;;;;;;;16.24;100.00;98522.59;1686109;85;21105;-55
2021/06/14 10:54:42;;;;;;;11.83;5.55;;;;;;;16.36;100.00;98524.02;1685599;85;21124;-52
2021/06/14 10:57:12;;;;;;;12.65;6.15;;;;;;;16.45;100.00;98510.52;1702562;84;21076;-53
2021/06/14 10:59:43;;;;;;;11.12;5.62;;;;;;;16.58;100.00;98521.81;1714306;84;21512;-56
2021/06/14 11:02:14;;;;;;;10.00;5.35;;;;;;;16.71;99.17;98518.20;1713633;84;21025;-50
2021/06/14 11:04:42;;;;;;;8.48;5.33;;;;;;;16.91;100.00;98512.73;1708447;83;21042;-53
2021/06/14 11:07:09;;;;;;;9.85;5.70;;;;;;;17.18;99.69;98499.31;1706136;84;20979;-52
2021/06/14 11:09:43;;;;;;;9.50;5.40;;;;;;;17.41;95.25;98503.41;1661978;84;21519;-52
2021/06/14 11:12:24;;;;;;;9.30;5.35;;;;;;;17.54;92.78;98501.58;1706654;83;21131;-50
2021/06/14 11:14:52;;;;;;;10.80;5.55;;;;;;;17.68;90.94;98500.05;1706443;84;21505;-59
2021/06/14 11:17:37;;;;;;;12.15;5.33;;;;;;;17.84;90.27;98502.80;1721603;82;20988;-55
2021/06/14 11:20:10;;;;;;;9.90;5.10;;;;;;;17.97;91.35;98488.41;1711401;83;21037;-55
2021/06/14 11:22:48;;;;;;;9.40;5.10;;;;;;;18.18;89.26;98479.91;1677842;85;21081;-53
2021/06/14 11:25:27;;;;;;;9.93;5.30;;;;;;;18.29;88.35;98476.69;1678180;85;21525;-53
2021/06/14 11:27:56;;;;;;;8.88;5.10;;;;;;;18.37;89.90;98486.84;1678043;85;21008;-53
2021/06/14 11:30:30;;;;;;;8.80;4.97;;;;;;;18.41;85.92;98484.42;1691246;84;21014;-47
2021/06/14 11:32:58;;;;;;;7.85;5.17;;;;;;;18.34;86.48;98474.02;1704274;83;21028;-48
2021/06/14 11:35:27;;;;;;;11.28;5.33;;;;;;;18.22;84.46;98482.29;1690494;85;21056;-49
2021/06/14 11:37:54;;;;;;;8.85;5.00;;;;;;;18.16;87.77;98474.02;1690699;85;21052;-56
2021/06/14 11:40:33;;;;;;;8.98;5.85;;;;;;;18.24;86.19;98483.38;1708751;83;21031;-56
2021/06/14 11:43:11;;;;;;;10.95;5.78;;;;;;;18.34;85.57;98503.91;1720766;83;21012;-53
2021/06/14 11:45:43;;;;;;;12.05;5.67;;;;;;;18.37;85.33;98498.05;1711093;83;21501;-55
2021/06/14 11:48:30;;;;;;;9.55;5.55;;;;;;;18.37;85.71;98473.50;1706318;83;21096;-54
2021/06/14 11:51:09;;;;;;;9.03;4.83;;;;;;;18.49;86.72;98478.56;1706216;84;21786;-52
2021/06/14 11:53:56;;;;;;;10.68;5.80;;;;;;;18.61;85.05;98488.96;1706306;84;21181;-49
2021/06/14 11:56:26;;;;;;;9.73;5.65;;;;;;;18.71;83.69;98483.11;1694787;84;21521;-58
2021/06/14 12:10:45;;;;;;;9.33;5.42;;;;;;;19.34;82.60;98491.48;1702158;83;21038;-54
2021/06/14 12:13:16;;;;;;;11.53;5.42;;;;;;;19.47;80.99;98495.43;1744691;82;21440;-52
2021/06/14 12:15:43;;;;;;;8.65;5.20;;;;;;;19.51;81.54;98490.34;1748662;82;21047;-48
2021/06/14 12:22:32;;;;;;;12.13;5.53;;;;;;;19.73;81.81;98471.29;1709771;82;21566;-54
2021/06/14 12:25:07;;;;;;;8.80;5.37;;;;;;;19.92;78.61;98475.44;1709673;84;21087;-53
2021/06/14 12:28:03;;;;;;;12.23;5.67;;;;;;;20.02;78.45;98477.52;1711616;83;21049;-53
2021/06/14 12:30:31;;;;;;;10.98;5.58;;;;;;;20.21;78.02;98492.90;1718516;83;21088;-61
2021/06/14 12:32:59;;;;;;;7.70;5.45;;;;;;;20.32;76.28;98485.05;1715663;82;21067;-52
2021/06/14 12:35:28;;;;;;;8.43;5.05;;;;;;;20.37;77.21;98493.05;1681605;83;21104;-49
2021/06/14 12:37:55;;;;;;;9.20;5.53;;;;;;;20.45;76.12;98495.11;1690534;85;21041;-51
2021/06/14 12:40:26;;;;;;;7.08;4.87;;;;;;;20.55;76.39;98480.88;1712342;83;21064;-62
2021/06/14 12:43:00;;;;;;;8.13;5.33;;;;;;;20.67;77.25;98502.72;1716850;83;21076;-54
2021/06/14 12:45:29;;;;;;;8.83;5.12;;;;;;;20.71;75.32;98478.86;1716093;83;21057;-57
2021/06/14 12:48:04;;;;;;;8.00;5.50;;;;;;;20.67;76.41;98482.63;1712518;83;21536;-53
2021/06/14 12:50:44;;;;;;;8.83;5.30;;;;;;;20.72;75.96;98482.59;1718989;83;21072;-54
2021/06/14 12:53:13;;;;;;;11.97;5.28;;;;;;;20.71;75.13;98486.34;1719297;83;21025;-58
2021/06/14 12:55:42;;;;;;;14.63;5.40;;;;;;;20.63;75.70;98491.76;1701835;83;21034;-55
2021/06/14 12:58:16;;;;;;;12.10;5.90;;;;;;;20.65;74.37;98490.95;1716420;83;21586;-57
2021/06/14 13:01:00;;;;;;;7.28;5.30;;;;;;;20.71;74.12;98484.22;1706185;84;21151;-52
2021/06/14 13:03:36;;;;;;;7.62;5.40;;;;;;;20.76;73.56;98479.61;1707502;84;21008;-53
2021/06/14 13:06:05;;;;;;;10.45;5.30;;;;;;;20.83;74.14;98496.68;1697912;84;21030;-51
2021/06/14 13:08:38;;;;;;;7.10;4.83;;;;;;;20.82;74.45;98491.87;1710812;83;21550;-56
2021/06/14 13:11:06;;;;;;;10.60;5.22;;;;;;;20.72;73.71;98490.63;1709853;83;21511;-52
2021/06/14 13:13:39;;;;;;;10.13;5.15;;;;;;;20.59;75.09;98489.41;1700160;84;21073;-59
2021/06/14 13:16:19;;;;;;;8.50;5.15;;;;;;;20.51;75.07;98504.72;1701444;84;21008;-59
2021/06/14 13:19:00;;;;;;;6.78;5.37;;;;;;;20.40;74.79;98486.57;1708622;84;21038;-54
2021/06/14 13:21:34;;;;;;;10.50;5.60;;;;;;;20.24;76.25;98491.78;1707922;83;20995;-54
2021/06/14 13:24:11;;;;;;;6.62;4.95;;;;;;;20.09;77.36;98490.58;1709502;83;21018;-55
2021/06/14 13:26:47;;;;;;;8.95;5.25;;;;;;;19.94;78.68;98495.48;1709020;83;20990;-57
2021/06/14 13:29:26;;;;;;;8.83;5.05;;;;;;;19.78;79.82;98492.09;1708779;84;21022;-57
2021/06/14 13:32:09;;;;;;;9.53;5.47;;;;;;;19.71;79.78;98493.48;1710231;83;21058;-56
2021/06/14 13:34:36;;;;;;;8.23;5.47;;;;;;;19.64;80.29;98483.09;1704639;83;21017;-56
2021/06/14 13:37:04;;;;;;;8.15;5.70;;;;;;;19.60;81.47;98493.52;1680383;85;21168;-58
2021/06/14 13:39:34;;;;;;;8.33;5.45;;;;;;;19.58;82.19;98493.52;1688843;85;20984;-58
2021/06/14 13:42:08;;;;;;;11.53;5.67;;;;;;;19.56;82.99;98490.33;1688887;84;21071;-60
2021/06/14 13:44:35;;;;;;;7.72;5.20;;;;;;;19.55;84.33;98492.17;1713804;84;21698;-55
2021/06/14 13:47:06;;;;;;;9.90;5.67;;;;;;;19.58;86.61;98492.18;1707914;83;21085;-54
2021/06/14 13:49:36;;;;;;;10.43;5.55;;;;;;;19.53;87.39;98490.33;1674869;85;21020;-60
2021/06/14 13:52:06;;;;;;;7.65;5.50;;;;;;;19.47;86.58;98494.09;1674697;85;21024;-57
2021/06/14 13:54:35;;;;;;;12.18;5.50;;;;;;;19.43;86.86;98490.91;1710069;83;21516;-55
2021/06/14 13:57:11;;;;;;;8.10;5.40;;;;;;;19.40;87.38;98486.91;1709031;84;21516;-58
2021/06/14 13:59:38;;;;;;;6.60;5.10;;;;;;;19.42;87.63;98484.76;1707610;84;21042;-54
